Latest Weather Observations for Minnipa RS

IDS60801

Issued at 9:05 am CST Friday 1 August 2014 (issued every 30 minutes, with the page automatically refreshed every 10 minutes)

About weather observations | Map of weather stations | Latest weather observations for SA | Other Formats
Station Details ID: 018195 Name: MINNIPA PIRSA Lat: -32.84 Lon: 135.15 Height: 165.0 m
Data from the previous 72 hours. | See also: Recent months at Minnipa RS
Date/Time
CST
Temp
°C
App
Temp
°C
Dew
Point
Rel
Hum
%
Delta-T
°C
Wind Press
QNH
hPa
Press
MSL
hPa
Rain
since 9 am
mm
Dir
 
Spd
km/h
Gust
km/h
Spd
kts
Gust
kts
01/09:00am 8.4 5.6 5.3 81 1.4 W 9 13 5 7 1023.1 1023.2 2.2
01/08:30am 6.5 3.6 4.5 87 0.9 W 9 13 5 7 1022.5 - 2.2
01/08:00am 5.4 2.4 3.9 90 0.6 W 9 11 5 6 1022.1 - 2.2
01/07:30am 4.6 1.4 3.1 90 0.6 WSW 9 11 5 6 1021.6 - 2.2
01/07:00am 5.3 2.2 3.8 90 0.6 WSW 9 11 5 6 1021.1 - 2.2
01/06:30am 6.2 2.1 4.5 89 0.7 WSW 15 20 8 11 1020.7 - 2.2
01/06:00am 6.2 2.1 4.4 88 0.8 WSW 15 24 8 13 1020.3 1020.4 2.0
01/05:30am 4.9 1.3 3.2 89 0.7 W 11 13 6 7 1019.8 - 1.8
01/05:00am 6.2 1.3 4.2 87 0.9 SW 19 24 10 13 1019.4 - 1.8
01/04:30am 5.4 1.5 3.6 88 0.8 WSW 13 15 7 8 1019.0 - 1.8
01/04:00am 5.8 2.0 4.0 88 0.8 WSW 13 17 7 9 1019.0 - 1.8
01/03:30am 6.9 0.8 4.7 86 1.0 SW 26 32 14 17 1018.8 - 1.8
01/03:00am 6.3 1.4 4.3 87 0.9 W 19 26 10 14 1018.4 1018.4 1.6
01/02:30am 6.7 1.8 4.9 88 0.8 WSW 20 28 11 15 1018.5 - 1.6
01/02:00am 6.7 1.8 5.2 90 0.7 W 20 28 11 15 1018.5 - 1.4
01/01:30am 6.7 1.4 5.0 89 0.8 WSW 22 35 12 19 1018.4 - 1.4
01/01:00am 6.6 1.8 4.8 88 0.8 W 19 24 10 13 1018.0 - 0.6
01/12:30am 6.9 2.6 5.1 88 0.8 WNW 17 20 9 11 1018.2 - 0.6
01/12:00am 7.4 2.4 4.7 83 1.2 W 20 26 11 14 1018.3 1018.3 0.6
 
Date/Time
CST
Temp
°C
App
Temp
°C
Dew
Point
Rel
Hum
%
Delta-T
°C
Wind Press
QNH
hPa
Press
MSL
hPa
Rain
since 9 am
mm
Dir
 
Spd
km/h
Gust
km/h
Spd
kts
Gust
kts
31/11:30pm 7.7 1.9 4.5 80 1.4 W 24 35 13 19 1018.1 - 0.6
31/11:00pm 7.8 2.0 4.6 80 1.4 W 24 33 13 18 1018.0 - 0.6
31/10:30pm 7.7 2.3 4.7 81 1.3 W 22 35 12 19 1017.7 - 0.6
31/10:00pm 7.6 2.7 5.1 84 1.1 W 20 30 11 16 1017.5 - 0.6
31/09:30pm 7.5 1.9 5.3 86 1.0 W 24 33 13 18 1017.3 - 0.6
31/09:00pm 7.8 1.7 4.7 81 1.4 W 26 37 14 20 1016.9 1017.1 0.4
31/08:54pm 7.9 1.4 4.7 80 1.4 WSW 28 44 15 24 1017.0 - 0.4
31/08:30pm 7.2 2.7 4.3 82 1.3 W 17 22 9 12 1016.6 - 0.4
31/08:00pm 7.8 2.8 4.6 80 1.4 W 20 28 11 15 1016.3 - 0.4
31/07:30pm 8.1 2.9 5.6 84 1.1 W 22 30 12 16 1016.1 - 0.4
31/07:00pm 8.4 3.3 6.0 85 1.1 WSW 22 30 12 16 1015.9 - 0.4
31/06:30pm 8.7 3.6 5.8 82 1.3 WSW 22 32 12 17 1015.4 - 0.4
31/06:00pm 9.4 4.3 5.8 78 1.7 WSW 22 28 12 15 1014.9 1015.0 0.4
31/05:30pm 10.3 3.7 6.1 75 2.0 SW 30 43 16 23 1014.3 - 0.4
31/05:00pm 10.2 3.9 7.4 83 1.3 WSW 30 46 16 25 1013.9 - 0.4
31/04:30pm 11.5 3.7 6.6 72 2.3 WSW 37 59 20 32 1013.1 - 0.4
31/04:12pm 11.8 4.9 7.1 73 2.3 WSW 33 54 18 29 1013.0 - 0.4
31/04:00pm 11.6 4.6 8.3 80 1.6 WSW 35 46 19 25 1013.0 - 0.4
31/03:30pm 12.6 4.6 7.5 71 2.5 WSW 39 57 21 31 1012.5 - 0.4
31/03:03pm 12.2 5.3 8.7 79 1.8 WSW 35 56 19 30 1012.3 - 0.4
31/03:00pm 12.6 6.1 9.1 79 1.8 W 33 48 18 26 1012.2 1012.3 0.4
31/02:35pm 12.2 5.7 8.3 77 1.9 W 32 56 17 30 1012.1 - 0.4
31/02:30pm 13.4 7.6 9.6 78 2.0 W 30 44 16 24 1011.8 - 0.4
31/02:00pm 11.7 3.3 9.1 84 1.3 W 43 63 23 34 1011.9 - 0.4
31/01:54pm 11.8 2.8 9.0 83 1.4 WSW 46 65 25 35 1011.9 - 0.4
31/01:51pm 12.0 1.8 8.7 80 1.7 WSW 52 65 28 35 1011.5 - 0.4
31/01:36pm 14.6 8.8 9.6 72 2.6 W 30 50 16 27 1011.4 - 0.2
31/01:30pm 14.3 8.1 10.1 76 2.2 W 33 46 18 25 1011.4 - 0.2
31/01:06pm 13.8 7.9 10.6 81 1.7 W 32 50 17 27 1011.5 - 0.2
31/01:00pm 14.0 8.0 10.8 81 1.7 W 33 44 18 24 1011.4 - 0.2
31/12:30pm 13.4 7.3 11.6 89 1.0 W 35 54 19 29 1011.6 - 0.2
31/12:06pm 15.4 9.2 10.2 71 2.7 WNW 33 52 18 28 1010.8 - 0.0
31/12:00pm 15.5 9.5 10.1 70 2.9 WNW 32 44 17 24 1010.7 1010.8 0.0
31/11:30am 15.7 9.6 9.8 68 3.1 WNW 32 54 17 29 1011.0 - 0.0
31/11:09am 15.5 8.7 9.2 66 3.3 WNW 35 54 19 29 1011.3 - 0.0
31/11:00am 16.1 10.0 9.8 66 3.3 WNW 32 46 17 25 1011.4 - 0.0
31/10:30am 15.1 8.8 9.0 67 3.1 WNW 32 44 17 24 1011.4 - 0.0
31/10:09am 14.5 8.7 8.0 65 3.3 WNW 28 46 15 25 1011.6 - 0.0
31/10:00am 14.2 8.5 8.2 67 3.0 WNW 28 41 15 22 1011.7 - 0.0
31/09:30am 12.7 7.3 6.3 65 3.1 WNW 24 35 13 19 1011.6 - 0.0
31/09:00am 11.6 5.7 5.7 67 2.8 NW 26 35 14 19 1011.5 1011.6 0.0
31/08:30am 9.5 4.5 4.7 72 2.2 NW 20 26 11 14 1011.2 - 0.0
31/08:00am 8.2 3.1 3.9 74 1.9 NNW 20 26 11 14 1010.7 - 0.0
31/07:30am 7.7 2.5 3.7 76 1.7 NNW 20 28 11 15 1010.8 - 0.0
31/07:00am 8.2 2.7 3.9 74 1.9 NNW 22 28 12 15 1010.7 - 0.0
31/06:30am 7.8 2.8 4.4 79 1.5 NNW 20 24 11 13 1010.6 - 0.0
31/06:00am 8.0 3.0 4.6 79 1.5 NNW 20 24 11 13 1010.7 1010.8 0.0
31/05:30am 8.1 3.2 4.9 80 1.4 NNW 20 24 11 13 1010.7 - 0.0
31/05:00am 8.1 3.2 5.0 81 1.4 NNW 20 24 11 13 1010.9 - 0.0
31/04:30am 8.0 3.3 5.3 83 1.2 N 19 24 10 13 1011.3 - 0.0
31/04:00am 8.2 3.6 5.5 83 1.2 N 19 26 10 14 1011.7 - 0.0
31/03:30am 8.6 4.0 5.7 82 1.3 N 19 24 10 13 1012.1 - 0.0
31/03:00am 9.1 4.4 6.0 81 1.4 N 20 28 11 15 1012.4 1012.5 0.0
31/02:30am 9.1 4.6 6.2 82 1.3 N 19 26 10 14 1012.8 - 0.0
31/02:00am 8.9 4.4 6.2 83 1.3 N 19 22 10 12 1013.3 - 0.0
31/01:30am 8.8 4.3 6.2 84 1.2 N 19 22 10 12 1013.4 - 0.0
31/01:00am 9.2 4.7 6.3 82 1.4 N 19 22 10 12 1013.8 - 0.0
31/12:30am 9.3 4.8 6.2 81 1.4 N 19 24 10 13 1014.2 - 0.0
31/12:00am 9.2 5.1 6.3 82 1.4 N 17 19 9 10 1014.6 1014.7 0.0
 
Date/Time
CST
Temp
°C
App
Temp
°C
Dew
Point
Rel
Hum
%
Delta-T
°C
Wind Press
QNH
hPa
Press
MSL
hPa
Rain
since 9 am
mm
Dir
 
Spd
km/h
Gust
km/h
Spd
kts
Gust
kts
30/11:30pm 9.7 5.7 6.6 81 1.5 N 17 22 9 12 1014.9 - 0.0
30/11:00pm 9.9 6.3 6.8 81 1.5 N 15 19 8 10 1015.2 - 0.0
30/10:30pm 9.3 5.7 6.6 83 1.3 N 15 17 8 9 1015.5 - 0.0
30/10:00pm 10.0 6.4 6.9 81 1.5 NW 15 17 8 9 1015.8 - 0.0
30/09:30pm 9.9 6.6 6.6 80 1.6 NW 13 15 7 8 1016.0 - 0.0
30/09:00pm 10.1 6.5 6.8 80 1.6 NNW 15 17 8 9 1016.1 1016.3 0.0
30/08:30pm 10.2 7.0 6.9 80 1.6 NNW 13 15 7 8 1016.3 - 0.0
30/08:00pm 11.0 7.8 6.9 76 2.0 NW 13 17 7 9 1016.6 - 0.0
30/07:30pm 11.4 8.2 6.9 74 2.2 NW 13 17 7 9 1016.7 - 0.0
30/07:00pm 12.1 8.9 7.0 71 2.5 NW 13 17 7 9 1016.7 - 0.0
30/06:30pm 13.3 10.2 7.1 66 3.0 WNW 13 17 7 9 1016.5 - 0.0
30/06:00pm 14.6 11.1 7.2 61 3.7 WNW 15 19 8 10 1016.6 1016.8 0.0
30/05:30pm 16.0 11.7 8.0 59 4.1 WNW 20 26 11 14 1016.7 - 0.0
30/05:00pm 17.1 13.0 8.5 57 4.4 WNW 20 28 11 15 1016.6 - 0.0
30/04:30pm 17.7 13.8 9.3 58 4.4 WNW 20 30 11 16 1016.6 - 0.0
30/04:00pm 17.6 13.0 9.5 59 4.3 NW 24 32 13 17 1016.8 - 0.0
30/03:30pm 17.4 12.7 9.1 58 4.3 NW 24 33 13 18 1017.1 - 0.0
30/03:00pm 18.3 12.9 9.6 57 4.6 NW 28 37 15 20 1017.3 1017.5 0.0
30/02:30pm 18.3 13.3 9.6 57 4.6 NW 26 37 14 20 1017.6 - 0.0
30/02:00pm 17.8 12.4 9.4 58 4.4 WNW 28 35 15 19 1017.9 - 0.0
30/01:30pm 17.8 13.4 10.4 62 4.0 WNW 24 35 13 19 1018.4 - 0.0
30/01:00pm 17.4 13.0 10.3 63 3.8 NW 24 33 13 18 1018.9 - 0.0
30/12:30pm 17.3 13.5 11.1 67 3.4 NW 22 28 12 15 1019.5 - 0.0
30/12:00pm 16.3 11.8 10.2 67 3.2 NW 24 32 13 17 1020.1 1020.2 0.0
30/11:30am 15.5 11.9 10.7 73 2.6 NW 20 28 11 15 1020.7 - 0.0
30/11:00am 14.2 11.0 11.2 82 1.6 NW 19 26 10 14 1021.2 - 0.0
30/10:30am 13.1 9.9 11.3 89 1.0 NW 19 24 10 13 1021.6 - 0.0
30/10:00am 12.3 9.6 11.8 97 0.3 NW 17 24 9 13 1021.7 - 0.0
30/09:30am 10.8 8.5 10.3 97 0.3 NW 13 17 7 9 1021.8 - 0.0
30/09:00am 10.0 7.4 9.5 97 0.3 NNW 13 19 7 10 1021.9 1022.1 0.4
30/08:30am 9.3 6.2 8.8 97 0.2 NNW 15 19 8 10 1021.7 - 0.4
30/08:00am 9.1 5.6 8.6 97 0.2 N 17 22 9 12 1021.5 - 0.4
30/07:30am 8.9 5.7 8.5 97 0.2 N 15 19 8 10 1021.5 - 0.4
30/07:00am 9.1 5.6 8.6 97 0.2 N 17 20 9 11 1021.5 - 0.4
30/06:30am 9.1 6.3 8.6 97 0.2 N 13 17 7 9 1021.1 - 0.4
30/06:00am 9.0 6.2 8.5 97 0.2 N 13 17 7 9 1021.1 1021.3 0.2
30/05:30am 8.9 5.7 8.3 96 0.3 N 15 19 8 10 1020.9 - 0.2
30/05:00am 9.1 6.3 8.5 96 0.3 N 13 17 7 9 1020.7 - 0.2
30/04:30am 9.0 5.8 8.4 96 0.3 N 15 19 8 10 1020.4 - 0.2
30/04:00am 9.0 5.8 8.4 96 0.3 N 15 19 8 10 1020.5 - 0.2
30/03:30am 9.4 5.9 8.8 96 0.3 NNW 17 22 9 12 1020.8 - 0.2
30/03:00am 9.0 5.8 8.4 96 0.3 NNW 15 17 8 9 1021.0 1021.2 0.2
30/02:30am 8.9 5.7 8.3 96 0.3 NNW 15 17 8 9 1021.2 - 0.2
30/02:00am 9.6 6.5 9.0 96 0.3 NNW 15 17 8 9 1021.5 - 0.0
30/01:30am 9.5 6.4 8.7 95 0.4 NW 15 17 8 9 1021.7 - 0.0
30/01:00am 9.4 6.6 8.6 95 0.4 NW 13 17 7 9 1021.8 - 0.0
30/12:30am 9.0 6.1 8.1 94 0.4 NW 13 15 7 8 1021.9 - 0.0
30/12:00am 9.2 6.3 8.1 93 0.5 NW 13 15 7 8 1022.2 1022.4 0.0
 
Date/Time
CST
Temp
°C
App
Temp
°C
Dew
Point
Rel
Hum
%
Delta-T
°C
Wind Press
QNH
hPa
Press
MSL
hPa
Rain
since 9 am
mm
Dir
 
Spd
km/h
Gust
km/h
Spd
kts
Gust
kts
29/11:30pm 9.3 6.4 8.2 93 0.5 NW 13 17 7 9 1022.3 - 0.0
29/11:00pm 9.3 6.4 8.1 92 0.6 NW 13 17 7 9 1022.5 - 0.0
29/10:30pm 9.5 6.2 7.9 90 0.8 NW 15 17 8 9 1022.5 - 0.0
29/10:00pm 9.8 6.9 8.1 89 0.8 NW 13 17 7 9 1022.6 - 0.0
29/09:30pm 9.5 6.4 7.4 87 1.0 NW 13 19 7 10 1022.4 - 0.0
29/09:00pm 9.8 6.8 7.7 87 1.0 NW 13 17 7 9 1022.4 1022.6 0.0
29/08:30pm 9.7 6.3 7.5 86 1.1 NW 15 20 8 11 1022.1 - 0.0
29/08:00pm 9.9 6.9 7.5 85 1.2 NW 13 17 7 9 1021.8 - 0.0
29/07:30pm 10.1 6.7 7.5 84 1.3 NW 15 17 8 9 1021.6 - 0.0
29/07:00pm 11.3 7.6 7.8 79 1.7 NW 17 20 9 11 1021.2 - 0.0
29/06:30pm 12.0 8.6 7.7 75 2.1 NW 15 19 8 10 1021.0 - 0.0
29/06:00pm 14.0 9.6 7.5 65 3.2 WNW 20 28 11 15 1020.8 1020.9 0.0
29/05:30pm 15.1 11.0 7.9 62 3.6 WNW 19 28 10 15 1020.8 - 0.0
29/05:00pm 16.2 11.5 7.7 57 4.3 W 22 32 12 17 1020.5 - 0.0
29/04:30pm 17.0 11.5 7.6 54 4.8 W 26 39 14 21 1020.2 - 0.0
29/04:00pm 17.4 11.7 6.9 50 5.3 W 26 37 14 20 1020.2 - 0.0
29/03:30pm 17.6 11.7 7.6 52 5.1 W 28 39 15 21 1020.1 - 0.0
29/03:00pm 17.9 12.5 7.9 52 5.1 W 26 35 14 19 1019.9 1020.0 0.0
29/02:30pm 17.9 12.5 7.9 52 5.1 W 26 37 14 20 1019.8 - 0.0
29/02:00pm 17.8 11.7 8.4 54 4.9 WNW 30 41 16 22 1019.7 - 0.0
29/01:30pm 17.8 12.4 9.4 58 4.4 WNW 28 39 15 21 1019.9 - 0.0
29/01:00pm 17.5 12.8 9.4 59 4.3 WNW 24 33 13 18 1020.2 - 0.0
29/12:30pm 17.0 12.3 9.4 61 4.0 WNW 24 33 13 18 1020.7 - 0.0
29/12:00pm 16.9 12.5 10.3 65 3.5 WNW 24 37 13 20 1021.2 1021.4 0.0
29/11:30am 16.3 12.1 9.9 66 3.4 WNW 22 33 12 18 1021.6 - 0.0
29/11:00am 15.4 11.7 9.5 68 3.1 WNW 19 28 10 15 1022.0 - 0.0
29/10:30am 14.3 10.7 10.7 79 1.9 NW 20 26 11 14 1021.9 - 0.0
29/10:00am 12.9 8.7 9.9 82 1.6 NW 22 28 12 15 1021.8 - 0.0
29/09:30am 11.7 8.5 9.8 88 1.0 NNW 17 22 9 12 1021.4 - 0.0

Other Formats:

Comma delimited format used in spreadsheet applications
http://www.bom.gov.au/fwo/IDS60801/IDS60801.95662.axf

JavaScript Object Notation format (JSON) in row-major order
http://www.bom.gov.au/fwo/IDS60801/IDS60801.95662.json